createdAt,value
2019-04-22T00:02:12.940Z,4.40
2019-04-22T00:04:54.539Z,5.33
2019-04-22T00:07:37.242Z,3.97
2019-04-22T00:10:12.086Z,3.97
2019-04-22T00:12:47.077Z,4.37
2019-04-22T00:15:10.091Z,3.97
2019-04-22T00:17:53.787Z,3.90
2019-04-22T00:20:14.442Z,3.87
2019-04-22T00:22:44.658Z,4.13
2019-04-22T00:25:19.784Z,4.53
2019-04-22T00:27:59.054Z,3.67
2019-04-22T00:30:20.971Z,3.83
2019-04-22T00:33:07.889Z,4.60
2019-04-22T00:35:35.533Z,3.83
2019-04-22T00:38:12.182Z,3.90
2019-04-22T00:40:46.088Z,3.57
2019-04-22T00:43:15.429Z,4.30
2019-04-22T00:45:45.948Z,4.33
2019-04-22T00:48:20.680Z,3.73
2019-04-22T00:56:05.606Z,3.17
2019-04-22T00:58:37.874Z,4.10
2019-04-22T01:01:14.094Z,3.73
2019-04-22T01:06:16.090Z,4.20
2019-04-22T01:08:53.745Z,3.87
2019-04-22T01:11:25.090Z,3.70
2019-04-22T01:13:52.175Z,3.43
2019-04-22T01:18:52.264Z,3.67
2019-04-22T01:21:30.268Z,3.57
2019-04-22T01:23:53.234Z,3.60
2019-04-22T01:26:20.205Z,3.33
2019-04-22T01:28:50.040Z,3.73
2019-04-22T01:31:17.944Z,3.90
2019-04-22T01:33:49.655Z,4.30
2019-04-22T01:36:30.313Z,3.90
2019-04-22T01:39:13.394Z,4.17
2019-04-22T01:41:48.892Z,4.53
2019-04-22T01:49:25.590Z,4.70
2019-04-22T01:56:52.622Z,5.00
2019-04-22T01:59:15.703Z,5.00
2019-04-22T02:01:55.102Z,5.47
2019-04-22T02:04:39.749Z,4.77
2019-04-22T02:09:38.415Z,4.97
2019-04-22T02:14:39.911Z,5.37
2019-04-22T02:17:31.543Z,5.57
2019-04-22T02:20:04.035Z,6.20
2019-04-22T02:22:50.802Z,5.00
2019-04-22T02:25:09.070Z,5.70
2019-04-22T02:27:43.757Z,5.53
2019-04-22T02:30:06.008Z,5.90
2019-04-22T02:33:18.443Z,6.10
2019-04-22T02:35:23.990Z,6.43
2019-04-22T02:37:46.245Z,6.50
2019-04-22T02:40:17.470Z,6.70
2019-04-22T02:42:58.768Z,6.17
2019-04-22T02:45:28.785Z,7.00
2019-04-22T02:47:56.246Z,6.00
2019-04-22T02:50:16.083Z,5.87
2019-04-22T02:52:55.690Z,6.47
2019-04-22T02:55:30.348Z,6.37
2019-04-22T02:57:57.941Z,7.03
2019-04-22T03:00:53.851Z,6.30
2019-04-22T03:03:09.148Z,6.07
2019-04-22T03:05:36.498Z,6.00
2019-04-22T03:08:10.294Z,6.00
2019-04-22T03:10:56.527Z,6.23
2019-04-22T03:13:09.216Z,6.80
2019-04-22T03:15:42.565Z,6.40
2019-04-22T03:18:09.998Z,6.50
2019-04-22T03:20:41.997Z,5.70
2019-04-22T03:26:05.031Z,5.87
2019-04-22T03:28:23.668Z,6.97
2019-04-22T03:31:27.358Z,6.37
2019-04-22T03:36:49.245Z,5.93
2019-04-22T03:43:56.114Z,6.37
2019-04-22T03:46:12.932Z,7.43
2019-04-22T03:49:07.209Z,5.40
2019-04-22T03:51:38.791Z,6.37
2019-04-22T03:54:03.491Z,5.23
2019-04-22T03:56:56.407Z,6.87
2019-04-22T03:58:56.934Z,6.93
2019-04-22T04:01:37.146Z,6.63
2019-04-22T04:04:20.985Z,6.57
2019-04-22T04:06:29.680Z,6.87
2019-04-22T04:08:59.261Z,7.20
2019-04-22T04:11:45.556Z,6.00
2019-04-22T04:16:39.159Z,6.57
2019-04-22T04:19:13.146Z,6.87
2019-04-22T04:24:28.653Z,7.07
2019-04-22T04:29:25.621Z,6.33
2019-04-22T04:31:51.350Z,5.87
2019-04-22T04:34:41.121Z,7.33
2019-04-22T04:39:22.190Z,6.73
2019-04-22T04:41:52.107Z,6.23
2019-04-22T04:44:26.697Z,6.47
2019-04-22T04:46:59.271Z,6.80
2019-04-22T04:49:24.538Z,6.50
2019-04-22T04:52:19.991Z,7.47
2019-04-22T04:57:14.459Z,7.13
2019-04-22T05:02:06.639Z,7.17
2019-04-22T05:05:00.043Z,7.23
2019-04-22T05:07:09.028Z,6.70
2019-04-22T05:14:32.303Z,7.20
2019-04-22T05:19:31.994Z,6.67
2019-04-22T05:22:07.765Z,6.63
2019-04-22T05:24:38.107Z,6.87
2019-04-22T05:27:19.714Z,6.27
2019-04-22T05:30:07.436Z,6.53
2019-04-22T05:32:12.030Z,5.93
2019-04-22T05:34:44.169Z,6.13
2019-04-22T05:37:14.690Z,5.90
2019-04-22T05:39:44.948Z,6.17
2019-04-22T05:42:16.479Z,6.07
2019-04-22T05:44:49.661Z,6.70
2019-04-22T05:47:19.447Z,6.27
2019-04-22T05:49:48.607Z,5.47
2019-04-22T05:52:20.367Z,6.30
2019-04-22T05:54:54.961Z,6.10
2019-04-22T05:57:29.266Z,6.40
2019-04-22T05:59:59.476Z,6.03
2019-04-22T06:02:41.721Z,5.70
2019-04-22T06:05:00.337Z,5.87
2019-04-22T06:07:37.327Z,6.27
2019-04-22T06:10:04.667Z,6.50
2019-04-22T06:12:29.762Z,6.10
2019-04-22T06:15:24.304Z,6.10
2019-04-22T06:17:47.297Z,4.40
2019-04-22T06:20:15.901Z,5.47
2019-04-22T06:22:50.999Z,5.47
2019-04-22T06:27:57.502Z,5.50
2019-04-22T06:30:23.292Z,6.03
2019-04-22T06:32:53.964Z,6.10
2019-04-22T06:35:29.773Z,5.50
2019-04-22T06:40:29.655Z,6.10
2019-04-22T06:43:03.145Z,6.23
2019-04-22T06:45:30.505Z,5.60
2019-04-22T06:50:39.221Z,6.17
2019-04-22T06:53:03.102Z,6.73
2019-04-22T06:58:04.791Z,6.33
2019-04-22T07:03:31.719Z,6.67
2019-04-22T07:05:46.380Z,5.40
2019-04-22T07:10:47.827Z,5.50
2019-04-22T07:13:23.582Z,5.60
2019-04-22T07:15:50.585Z,6.40
2019-04-22T07:18:24.667Z,4.77
2019-04-22T07:20:51.130Z,3.77
2019-04-22T07:25:52.132Z,2.30
2019-04-22T07:28:21.599Z,2.80
2019-04-22T07:31:00.600Z,2.43
2019-04-22T07:36:23.442Z,2.17
2019-04-22T07:40:59.254Z,2.60
2019-04-22T07:43:51.637Z,2.07
2019-04-22T07:46:10.879Z,2.30
2019-04-22T07:48:46.805Z,2.63
2019-04-22T07:51:10.085Z,2.50
2019-04-22T07:53:39.215Z,2.13
2019-04-22T07:56:15.738Z,2.53
2019-04-22T07:58:42.071Z,2.50
2019-04-22T08:01:14.073Z,1.90
2019-04-22T08:04:03.182Z,2.07
2019-04-22T08:06:16.841Z,2.47
2019-04-22T08:08:55.585Z,2.40
2019-04-22T08:11:37.423Z,2.47
2019-04-22T08:13:47.058Z,2.10
2019-04-22T08:16:26.258Z,2.40
2019-04-22T08:18:56.835Z,2.73
2019-04-22T08:21:26.892Z,2.43
2019-04-22T08:24:01.201Z,2.90
2019-04-22T08:26:29.719Z,2.87
2019-04-22T08:28:59.063Z,2.50
2019-04-22T08:31:35.703Z,2.43
2019-04-22T08:34:01.969Z,2.50
2019-04-22T08:36:32.266Z,1.83
2019-04-22T08:39:08.212Z,2.70
2019-04-22T08:44:35.490Z,2.73
2019-04-22T08:46:40.997Z,2.73
2019-04-22T08:49:13.055Z,2.60
2019-04-22T08:51:42.393Z,2.57
2019-04-22T08:54:11.893Z,2.40
2019-04-22T08:56:45.945Z,2.90
2019-04-22T09:01:50.731Z,2.43
2019-04-22T09:04:16.618Z,2.63
2019-04-22T09:07:09.163Z,2.70
2019-04-22T09:09:27.225Z,5.60
2019-04-22T09:12:00.223Z,3.43
2019-04-22T09:17:07.445Z,3.20
2019-04-22T09:19:30.007Z,2.50
2019-04-22T09:22:26.600Z,3.27
2019-04-22T09:24:46.968Z,2.80
2019-04-22T09:27:26.048Z,2.70
2019-04-22T09:29:50.090Z,2.47
2019-04-22T09:32:27.242Z,2.60
2019-04-22T09:34:51.750Z,2.70
2019-04-22T09:40:04.532Z,2.63
2019-04-22T09:42:37.221Z,2.27
2019-04-22T09:45:15.128Z,2.90
2019-04-22T09:47:55.086Z,7.27
2019-04-22T09:50:29.173Z,6.80
2019-04-22T09:53:06.145Z,7.07
2019-04-22T09:55:24.356Z,5.67
2019-04-22T09:57:58.851Z,3.20
2019-04-22T10:00:38.050Z,3.73
2019-04-22T10:03:07.225Z,3.53
2019-04-22T10:05:41.222Z,4.13
2019-04-22T10:08:18.687Z,3.00
2019-04-22T10:10:46.871Z,2.97
2019-04-22T10:13:14.100Z,6.57
2019-04-22T10:15:50.189Z,5.43
2019-04-22T10:18:20.359Z,4.20
2019-04-22T10:20:45.903Z,3.90
2019-04-22T10:23:21.670Z,7.63
2019-04-22T10:25:54.156Z,3.80
2019-04-22T10:28:23.582Z,4.40
2019-04-22T10:33:22.450Z,4.40
2019-04-22T10:35:32.544Z,7.20
2019-04-22T10:38:03.839Z,4.47
2019-04-22T10:40:38.774Z,5.20
2019-04-22T10:43:11.498Z,8.43
2019-04-22T10:45:42.009Z,5.67
2019-04-22T10:48:14.388Z,4.20
2019-04-22T10:50:46.770Z,8.23
2019-04-22T10:53:23.884Z,6.17
2019-04-22T10:55:54.415Z,3.50
2019-04-22T10:58:30.715Z,12.13
2019-04-22T11:01:03.250Z,5.97
2019-04-22T11:03:33.441Z,5.37
2019-04-22T11:06:03.666Z,3.50
2019-04-22T11:08:42.453Z,3.10
2019-04-22T11:11:18.987Z,3.20
2019-04-22T11:13:37.827Z,3.50
2019-04-22T11:16:07.980Z,7.37
2019-04-22T11:18:37.980Z,5.17
2019-04-22T11:21:13.775Z,10.47
2019-04-22T11:23:44.781Z,10.93
2019-04-22T11:26:17.635Z,5.13
2019-04-22T11:28:47.658Z,4.73
2019-04-22T11:31:18.684Z,5.50
2019-04-22T11:33:48.537Z,3.73
2019-04-22T11:36:19.744Z,6.40
2019-04-22T11:38:56.440Z,3.30
2019-04-22T11:41:28.604Z,5.10
2019-04-22T11:43:59.122Z,3.90
2019-04-22T11:46:29.526Z,3.70
2019-04-22T11:49:00.290Z,3.90
2019-04-22T11:51:42.198Z,2.94
2019-04-22T11:54:12.579Z,2.60
2019-04-22T11:56:43.063Z,2.57
2019-04-22T11:59:13.085Z,4.00
2019-04-22T12:01:42.865Z,3.00
2019-04-22T12:04:13.720Z,2.73
2019-04-22T12:06:44.161Z,2.87
2019-04-22T12:09:15.447Z,2.53
2019-04-22T12:11:46.769Z,2.97
2019-04-22T12:14:18.072Z,4.67
2019-04-22T12:16:47.839Z,6.53
2019-04-22T12:19:29.414Z,8.37
2019-04-22T12:22:00.717Z,4.47
2019-04-22T12:24:30.381Z,3.10
2019-04-22T12:27:00.540Z,5.60
2019-04-22T12:29:31.052Z,6.80
2019-04-22T12:32:01.137Z,4.77
2019-04-22T12:34:31.357Z,6.00
2019-04-22T12:37:02.519Z,5.17
2019-04-22T12:39:33.618Z,3.23
2019-04-22T12:42:04.373Z,2.63
2019-04-22T12:44:38.477Z,7.07
2019-04-22T12:47:09.845Z,3.06
2019-04-22T12:49:42.377Z,5.37
2019-04-22T12:52:23.427Z,4.90
2019-04-22T12:54:44.577Z,5.90
2019-04-22T12:57:14.800Z,9.10
2019-04-22T12:59:45.647Z,8.00
2019-04-22T13:02:19.045Z,7.27
2019-04-22T13:04:49.968Z,3.30
2019-04-22T13:07:20.201Z,3.40
2019-04-22T13:09:51.497Z,3.70
2019-04-22T13:12:22.477Z,4.90
2019-04-22T13:14:52.974Z,4.80
2019-04-22T13:17:23.055Z,6.90
2019-04-22T13:19:54.095Z,4.80
2019-04-22T13:22:24.968Z,9.40
2019-04-22T13:24:54.616Z,11.57
2019-04-22T13:27:24.780Z,4.20
2019-04-22T13:29:55.156Z,3.17
2019-04-22T13:32:25.063Z,2.37
2019-04-22T13:35:03.975Z,11.00
2019-04-22T13:37:35.047Z,4.57
2019-04-22T13:40:05.431Z,4.80
2019-04-22T13:42:35.547Z,7.80
2019-04-22T13:45:15.832Z,3.23
2019-04-22T13:48:02.984Z,6.30
2019-04-22T13:50:49.888Z,2.77
2019-04-22T13:53:29.659Z,3.03
2019-04-22T13:58:05.858Z,20.09
2019-04-22T14:00:28.984Z,34.43
2019-04-22T14:03:18.232Z,7.27
2019-04-22T14:05:53.014Z,4.20
2019-04-22T14:08:23.043Z,6.50
2019-04-22T14:10:54.106Z,5.57
2019-04-22T14:13:30.349Z,17.50
2019-04-22T14:16:01.334Z,13.43
2019-04-22T14:18:31.177Z,7.93
2019-04-22T14:21:01.115Z,3.23
2019-04-22T14:23:30.967Z,2.20
2019-04-22T14:26:01.312Z,2.10
2019-04-22T14:28:33.687Z,1.80
2019-04-22T14:31:04.359Z,1.57
2019-04-22T14:33:34.422Z,1.53
2019-04-22T14:36:04.775Z,1.63
2019-04-22T14:38:39.847Z,1.77
2019-04-22T14:41:12.092Z,1.90
2019-04-22T14:44:49.604Z,1.60
2019-04-22T14:46:47.810Z,1.70
2019-04-22T14:49:02.820Z,1.70
2019-04-22T14:51:39.212Z,1.67
2019-04-22T14:54:06.941Z,1.60
2019-04-22T14:56:20.248Z,1.70
2019-04-22T14:58:50.884Z,1.47
2019-04-22T15:01:21.105Z,2.00
2019-04-22T15:03:50.815Z,1.87
2019-04-22T15:06:22.334Z,1.80
2019-04-22T15:08:59.631Z,2.03
2019-04-22T15:11:42.873Z,1.70
2019-04-22T15:14:01.329Z,2.07
2019-04-22T15:16:42.641Z,2.00
2019-04-22T15:19:47.720Z,2.20
2019-04-22T15:22:18.735Z,2.57
2019-04-22T15:24:48.656Z,1.83
2019-04-22T15:27:20.256Z,1.63
2019-04-22T15:29:53.568Z,1.75
2019-04-22T15:32:25.191Z,2.08
2019-04-22T15:34:55.382Z,1.92
2019-04-22T15:37:26.402Z,2.20
2019-04-22T15:39:56.864Z,1.90
2019-04-22T15:42:30.738Z,1.75
2019-04-22T15:44:58.092Z,1.90
2019-04-22T15:47:29.077Z,2.05
2019-04-22T15:50:00.283Z,2.25
2019-04-22T15:52:36.573Z,2.13
2019-04-22T15:55:02.758Z,2.27
2019-04-22T15:57:36.067Z,2.20
2019-04-22T16:00:28.407Z,1.97
2019-04-22T16:02:43.722Z,2.03
2019-04-22T16:05:14.906Z,2.80
2019-04-22T16:07:45.856Z,2.53
2019-04-22T16:10:17.802Z,2.07
2019-04-22T16:12:57.515Z,2.23
2019-04-22T16:15:20.317Z,2.77
2019-04-22T16:17:50.821Z,2.30
2019-04-22T16:20:23.002Z,2.57
2019-04-22T16:23:29.754Z,3.33
2019-04-22T16:26:09.748Z,2.47
2019-04-22T16:28:39.654Z,2.30
2019-04-22T16:31:09.448Z,2.00
2019-04-22T16:33:41.478Z,2.13
2019-04-22T16:36:11.060Z,2.00
2019-04-22T16:38:42.777Z,2.27
2019-04-22T16:41:12.900Z,2.10
2019-04-22T16:43:44.688Z,2.30
2019-04-22T16:46:15.895Z,2.10
2019-04-22T16:48:47.484Z,2.30
2019-04-22T16:51:24.413Z,2.37
2019-04-22T16:53:54.205Z,2.50
2019-04-22T16:56:24.768Z,2.33
2019-04-22T16:58:56.732Z,2.37
2019-04-22T17:02:01.247Z,3.67
2019-04-22T17:04:59.639Z,2.50
2019-04-22T17:07:29.975Z,2.63
2019-04-22T17:09:59.864Z,2.20
2019-04-22T17:12:41.895Z,3.00
2019-04-22T17:15:06.142Z,2.50
2019-04-22T17:17:47.392Z,2.43
2019-04-22T17:20:17.453Z,2.50
2019-04-22T17:23:02.589Z,2.27
2019-04-22T17:25:32.247Z,3.30
2019-04-22T17:28:03.666Z,2.43
2019-04-22T17:30:34.254Z,2.27
2019-04-22T17:33:05.215Z,2.37
2019-04-22T17:35:36.025Z,2.10
2019-04-22T17:38:16.694Z,2.30
2019-04-22T17:40:53.743Z,2.60
2019-04-22T17:43:44.186Z,2.43
2019-04-22T17:46:07.184Z,2.10
2019-04-22T17:49:04.279Z,2.73
2019-04-22T17:51:55.114Z,2.73
2019-04-22T17:54:07.243Z,2.20
2019-04-22T17:56:37.518Z,2.27
2019-04-22T17:59:08.279Z,2.17
2019-04-22T18:01:38.289Z,2.30
2019-04-22T18:03:56.614Z,2.67
2019-04-22T18:06:50.061Z,2.80
2019-04-22T18:09:11.234Z,2.57
2019-04-22T18:11:51.054Z,2.30
2019-04-22T18:14:35.080Z,2.53
2019-04-22T18:16:54.126Z,2.10
2019-04-22T18:19:19.336Z,2.00
2019-04-22T18:21:50.066Z,2.30
2019-04-22T18:24:11.439Z,2.33
2019-04-22T18:26:53.463Z,2.70
2019-04-22T18:29:31.564Z,2.00
2019-04-22T18:31:50.184Z,1.90
2019-04-22T18:34:26.628Z,2.00
2019-04-22T18:36:59.117Z,2.22
2019-04-22T18:39:42.358Z,2.03
2019-04-22T18:42:03.413Z,2.20
2019-04-22T18:44:39.874Z,2.20
2019-04-22T18:47:10.544Z,2.13
2019-04-22T18:49:37.592Z,2.07
2019-04-22T18:52:27.172Z,2.30
2019-04-22T18:55:16.671Z,2.53
2019-04-22T18:58:03.045Z,1.77
2019-04-22T19:00:19.047Z,1.80
2019-04-22T19:02:56.923Z,2.80
2019-04-22T19:05:34.746Z,2.03
2019-04-22T19:08:21.448Z,1.80
2019-04-22T19:16:09.743Z,1.67
2019-04-22T19:18:32.375Z,1.67
2019-04-22T19:20:57.821Z,1.60
2019-04-22T19:23:28.683Z,1.80
2019-04-22T19:25:52.636Z,1.97
2019-04-22T19:31:02.720Z,2.50
2019-04-22T19:33:34.938Z,1.90
2019-04-22T19:36:10.005Z,1.70
2019-04-22T19:38:25.624Z,1.73
2019-04-22T19:41:18.574Z,1.43
2019-04-22T19:43:38.955Z,1.73
2019-04-22T19:46:08.946Z,1.67
2019-04-22T19:48:56.535Z,2.10
2019-04-22T19:51:19.032Z,1.80
2019-04-22T19:53:47.406Z,1.60
2019-04-22T19:56:07.214Z,1.43
2019-04-22T19:58:53.216Z,1.50
2019-04-22T20:01:40.116Z,1.40
2019-04-22T20:04:41.604Z,1.53
2019-04-22T20:06:53.727Z,1.63
2019-04-22T20:09:29.969Z,1.47
2019-04-22T20:12:01.119Z,1.50
2019-04-22T20:14:35.805Z,1.53
2019-04-22T20:16:58.559Z,1.37
2019-04-22T20:19:45.820Z,1.37
2019-04-22T20:22:09.799Z,1.70
2019-04-22T20:24:28.191Z,1.40
2019-04-22T20:27:16.364Z,2.00
2019-04-22T20:29:48.173Z,1.50
2019-04-22T20:32:16.938Z,1.70
2019-04-22T20:34:52.834Z,1.40
2019-04-22T20:37:23.627Z,1.37
2019-04-22T20:39:48.795Z,1.27
2019-04-22T20:42:33.229Z,1.57
2019-04-22T20:44:52.046Z,1.10
2019-04-22T20:47:20.677Z,1.50
2019-04-22T20:50:00.714Z,1.50
2019-04-22T20:55:00.105Z,1.40
2019-04-22T20:57:34.701Z,1.70
2019-04-22T21:00:08.934Z,1.00
2019-04-22T21:02:36.286Z,1.60
2019-04-22T21:05:08.184Z,1.50
2019-04-22T21:07:47.894Z,1.30
2019-04-22T21:10:15.800Z,1.30
2019-04-22T21:12:41.790Z,1.40
2019-04-22T21:15:29.952Z,1.67
2019-04-22T21:17:53.353Z,1.27
2019-04-22T21:20:31.792Z,1.80
2019-04-22T21:22:58.341Z,1.60
2019-04-22T21:25:22.697Z,1.63
2019-04-22T21:28:04.463Z,1.50
2019-04-22T21:30:32.261Z,1.83
2019-04-22T21:32:57.758Z,1.80
2019-04-22T21:35:59.621Z,1.00
2019-04-22T21:38:09.778Z,1.73
2019-04-22T21:40:37.683Z,1.70
2019-04-22T21:43:12.656Z,1.27
2019-04-22T21:45:35.373Z,1.90
2019-04-22T21:48:20.111Z,1.57
2019-04-22T21:53:25.509Z,1.53
2019-04-22T21:55:58.528Z,1.50
2019-04-22T21:58:24.523Z,1.60
2019-04-22T22:01:21.244Z,1.63
2019-04-22T22:03:52.274Z,1.50
2019-04-22T22:06:14.201Z,1.35
2019-04-22T22:08:51.352Z,1.50
2019-04-22T22:11:18.827Z,1.53
2019-04-22T22:13:50.429Z,1.40
2019-04-22T22:16:19.157Z,1.60
2019-04-22T22:19:00.966Z,1.73
2019-04-22T22:24:04.385Z,1.40
2019-04-22T22:26:35.168Z,1.60
2019-04-22T22:29:31.827Z,1.30
2019-04-22T22:31:40.243Z,1.50
2019-04-22T22:34:10.904Z,1.30
2019-04-22T22:36:29.626Z,1.30
2019-04-22T22:39:03.912Z,1.50
2019-04-22T22:41:18.550Z,1.63
2019-04-22T22:43:51.263Z,1.30
2019-04-22T22:46:33.047Z,1.47
2019-04-22T22:49:18.643Z,1.23
2019-04-22T22:54:21.448Z,1.50
2019-04-22T22:56:57.616Z,1.60
2019-04-22T22:59:18.232Z,1.67
2019-04-22T23:01:45.141Z,1.67
2019-04-22T23:04:28.388Z,1.60
2019-04-22T23:07:04.324Z,1.40
2019-04-22T23:09:36.677Z,1.77
2019-04-22T23:12:13.301Z,1.90
2019-04-22T23:14:37.133Z,1.93
2019-04-22T23:16:55.675Z,1.60
2019-04-22T23:19:19.883Z,1.50
2019-04-22T23:21:52.627Z,1.80
2019-04-22T23:24:55.610Z,1.77
2019-04-22T23:27:34.487Z,1.77
2019-04-22T23:30:02.370Z,1.67
2019-04-22T23:32:35.252Z,2.00
2019-04-22T23:35:20.980Z,1.70
2019-04-22T23:37:50.591Z,1.83
2019-04-22T23:42:58.886Z,1.80
2019-04-22T23:45:27.041Z,1.90
2019-04-22T23:47:47.300Z,1.90
2019-04-22T23:50:33.987Z,1.97
2019-04-22T23:53:06.497Z,1.83
2019-04-22T23:55:38.430Z,2.13
2019-04-22T23:58:11.840Z,2.07
